Onon Hill, New York
Current Conditions -  °F | °C
As of 8:54 AM on Wednesday 22 Oct 2014 (Local Time) from KSYR Reporting Station
Overcast Overcast  
Wind Chill: 43°   Ceiling: 2500
Heat Index: 47°   Visibility: 7mi
Dew Point: 44°   Wind: 7mph
Humidity: 90%   Direction: 350°N
Pressure: 30.14"   Gusts: NA
Location:  42.9779°N, 76.2271°W
Report Text: KSYR 221254Z 35006KT 7SM FEW008 BKN025 OVC050 08/07 A3014 RMK SLP202 T00810065
Loading
Personal Weather Stations






























Interactive Weather Map
Tropical Storm Tracking
New forecast layout! Learn more

10-Day Weather Forecast

Advertisements
Track Severe Weather on mobile